TIGR21 YSNW-YSNW
Flight info
| Callsign | TIGR21 |
|---|---|
| Flight time | 0h 11m |
| Altitude | 6000 |
| Route | 344636S1501873E 345143S1495664E DCT 344851S1494363E 350904S1495750E 352699S1495103E 353326S1501132E 352008S1502533E DCT 350578S1504225E |
| Aircraft | H60/M-SDFHITUY/C |
Departure
| Time | 2026-04-28 10:59 |
|---|---|
| Airport | Naval Air Station Nowra - HMAS Albatross (YSNW) |
Arrival
| Time | 2026-04-28 11:10 |
|---|---|
| Airport | Naval Air Station Nowra - HMAS Albatross (YSNW) |
| Time | Latitude | Longitude | Altitude | Speed | Heading |
|---|---|---|---|---|---|
| 2026-04-28 10:52 | -34.94524 | 150.54607 | 362 ft | 0 kts | 334° |
| 2026-04-28 10:58 | -34.94489 | 150.54591 | 389 ft | 5 kts | 339° |
| 2026-04-28 10:58 | -34.94420 | 150.54562 | 489 ft | 27 kts | 341° |
| 2026-04-28 10:59 | -34.94172 | 150.54273 | 799 ft | 68 kts | 319° |
| 2026-04-28 10:59 | -34.93757 | 150.53736 | 1048 ft | 105 kts | 314° |
| 2026-04-28 10:59 | -34.93192 | 150.53008 | 994 ft | 127 kts | 317° |
| 2026-04-28 10:59 | -34.92898 | 150.52116 | 1105 ft | 108 kts | 242° |
| 2026-04-28 11:00 | -34.93571 | 150.51835 | 1271 ft | 111 kts | 153° |
| 2026-04-28 11:00 | -34.94055 | 150.52583 | 1279 ft | 110 kts | 116° |
| 2026-04-28 11:00 | -34.94425 | 150.53346 | 1358 ft | 101 kts | 119° |
| 2026-04-28 11:00 | -34.94812 | 150.54080 | 1410 ft | 106 kts | 123° |
| 2026-04-28 11:01 | -34.95227 | 150.54863 | 1359 ft | 116 kts | 121° |
| 2026-04-28 11:01 | -34.95654 | 150.55724 | 1308 ft | 121 kts | 118° |
| 2026-04-28 11:01 | -34.96057 | 150.56591 | 1419 ft | 114 kts | 117° |
| 2026-04-28 11:01 | -34.96430 | 150.57454 | 1341 ft | 115 kts | 115° |
| 2026-04-28 11:02 | -34.96782 | 150.58334 | 1259 ft | 116 kts | 113° |
| 2026-04-28 11:02 | -34.97114 | 150.59230 | 1136 ft | 116 kts | 111° |
| 2026-04-28 11:02 | -34.97426 | 150.60138 | 1066 ft | 115 kts | 110° |
| 2026-04-28 11:02 | -34.97620 | 150.60737 | 1054 ft | 114 kts | 109° |
| 2026-04-28 11:03 | -34.97947 | 150.61611 | 1056 ft | 113 kts | 121° |
| 2026-04-28 11:03 | -34.98339 | 150.62438 | 1086 ft | 112 kts | 120° |
| 2026-04-28 11:03 | -34.98738 | 150.63240 | 1253 ft | 109 kts | 123° |
| 2026-04-28 11:03 | -34.99117 | 150.64033 | 1523 ft | 107 kts | 121° |
| 2026-04-28 11:04 | -34.99486 | 150.64825 | 1405 ft | 111 kts | 131° |
| 2026-04-28 11:04 | -34.99896 | 150.65654 | 1404 ft | 112 kts | 126° |
| 2026-04-28 11:04 | -35.00382 | 150.66344 | 1538 ft | 104 kts | 136° |
| 2026-04-28 11:04 | -35.00898 | 150.66957 | 1569 ft | 103 kts | 140° |
| 2026-04-28 11:05 | -35.01431 | 150.67533 | 1658 ft | 101 kts | 142° |
| 2026-04-28 11:05 | -35.01962 | 150.68090 | 1697 ft | 100 kts | 153° |
| 2026-04-28 11:05 | -35.02592 | 150.67984 | 1689 ft | 98 kts | 237° |
| 2026-04-28 11:05 | -35.02644 | 150.67304 | 1740 ft | 81 kts | 301° |
| 2026-04-28 11:06 | -35.02335 | 150.66715 | 1776 ft | 84 kts | 310° |
| 2026-04-28 11:06 | -35.02014 | 150.66121 | 1829 ft | 84 kts | 307° |
| 2026-04-28 11:06 | -35.01676 | 150.65541 | 1924 ft | 83 kts | 310° |
| 2026-04-28 11:06 | -35.01325 | 150.64970 | 1903 ft | 86 kts | 312° |
| 2026-04-28 11:07 | -35.00896 | 150.64309 | 1869 ft | 107 kts | 313° |
| 2026-04-28 11:07 | -35.00406 | 150.63589 | 1903 ft | 113 kts | 314° |
| 2026-04-28 11:07 | -34.99888 | 150.62849 | 1894 ft | 117 kts | 315° |
| 2026-04-28 11:07 | -34.99325 | 150.62121 | 1924 ft | 119 kts | 315° |
| 2026-04-28 11:08 | -34.98746 | 150.61404 | 1981 ft | 119 kts | 315° |
| 2026-04-28 11:08 | -34.98165 | 150.60686 | 1998 ft | 118 kts | 315° |
| 2026-04-28 11:08 | -34.97573 | 150.59982 | 1990 ft | 118 kts | 316° |
| 2026-04-28 11:08 | -34.96997 | 150.59288 | 2014 ft | 116 kts | 316° |
| 2026-04-28 11:09 | -34.96440 | 150.58593 | 1941 ft | 111 kts | 319° |
| 2026-04-28 11:09 | -34.95972 | 150.57937 | 1884 ft | 95 kts | 316° |
| 2026-04-28 11:09 | -34.95623 | 150.57311 | 1834 ft | 85 kts | 311° |
| 2026-04-28 11:09 | -34.95369 | 150.56713 | 1750 ft | 72 kts | 307° |
| 2026-04-28 11:10 | -34.95188 | 150.56222 | 1597 ft | 53 kts | 307° |
| 2026-04-28 11:10 | -34.95068 | 150.55873 | 1415 ft | 42 kts | 310° |
| 2026-04-28 11:10 | -34.94960 | 150.55546 | 1197 ft | 40 kts | 312° |
| 2026-04-28 11:10 | -34.94869 | 150.55248 | 1001 ft | 35 kts | 314° |
| 2026-04-28 11:11 | -34.94803 | 150.54984 | 794 ft | 29 kts | 315° |
| 2026-04-28 11:11 | -34.94774 | 150.54811 | 565 ft | 14 kts | 319° |
| 2026-04-28 11:11 | -34.94685 | 150.54736 | 384 ft | 11 kts | 326° |
| 2026-04-28 11:11 | -34.94651 | 150.54711 | 363 ft | 3 kts | 337° |
| 2026-04-28 11:12 | -34.94638 | 150.54698 | 360 ft | 0 kts | 340° |